Time;durP1;ratioP1;P1;durP2;ratioP2;P2;SDS_P1;SDS_P2;PMS_P1;PMS_P2;Temp;Humidity;BMP_temperature;BMP_pressure;BME280_temperature;BME280_humidity;BME280_pressure;Samples;Min_cycle;Max_cycle;Signal;HPM_P1;HPM_P2
2022/03/04 00:01:29;;;;;;;58.20;30.90;;;;;;;1.75;78.33;100864.59;1609573;88;25896;-75
2022/03/04 00:03:55;;;;;;;60.33;32.25;;;;;;;1.75;78.44;100868.09;1607467;88;26005;-75
2022/03/04 00:06:22;;;;;;;63.52;32.00;;;;;;;1.76;78.39;100862.30;1610543;88;27506;-74
2022/03/04 00:08:50;;;;;;;62.00;32.55;;;;;;;1.76;78.50;100868.42;1607730;88;26085;-75
2022/03/04 00:11:17;;;;;;;62.17;31.48;;;;;;;1.77;78.46;100867.48;1601899;88;26176;-73
2022/03/04 00:13:43;;;;;;;67.87;33.50;;;;;;;1.77;78.51;100863.99;1606100;87;25957;-75
2022/03/04 00:16:12;;;;;;;60.70;32.38;;;;;;;1.76;78.56;100864.47;1602242;88;25784;-76
2022/03/04 00:18:38;;;;;;;59.48;30.85;;;;;;;1.77;78.69;100868.80;1602487;88;27493;-76
2022/03/04 00:21:04;;;;;;;60.78;31.82;;;;;;;1.78;78.73;100871.78;1607424;88;26443;-74
2022/03/04 00:23:32;;;;;;;58.00;30.25;;;;;;;1.79;78.68;100871.31;1608011;88;25797;-75
2022/03/04 00:25:58;;;;;;;60.20;31.15;;;;;;;1.80;78.84;100870.33;1612997;88;26431;-77
2022/03/04 00:28:24;;;;;;;62.83;32.90;;;;;;;1.82;78.84;100869.24;1607499;87;25888;-73
2022/03/04 00:30:50;;;;;;;60.23;30.32;;;;;;;1.84;78.86;100870.47;1610937;87;28557;-75
2022/03/04 00:33:16;;;;;;;59.88;28.98;;;;;;;1.85;78.78;100869.48;1487714;88;10001193;-75
2022/03/04 00:35:43;;;;;;;52.30;29.05;;;;;;;1.85;78.87;100871.65;1604018;88;25812;-78
2022/03/04 00:38:09;;;;;;;54.20;28.23;;;;;;;1.87;78.95;100870.20;1610614;87;26316;-75
2022/03/04 00:40:35;;;;;;;58.78;29.20;;;;;;;1.87;79.01;100868.41;1606323;88;28187;-73
2022/03/04 00:43:01;;;;;;;55.25;29.10;;;;;;;1.90;79.02;100871.28;1604831;88;26031;-74
2022/03/04 00:45:27;;;;;;;55.43;28.15;;;;;;;1.92;79.05;100867.55;1594746;88;25853;-73
2022/03/04 00:47:54;;;;;;;55.63;28.47;;;;;;;1.94;79.08;100866.10;1603887;87;26770;-75
2022/03/04 00:50:20;;;;;;;56.48;28.10;;;;;;;1.93;79.07;100865.73;1601378;88;26497;-75
2022/03/04 00:52:46;;;;;;;57.27;28.95;;;;;;;1.92;79.09;100864.06;1606286;87;27477;-75
2022/03/04 00:55:12;;;;;;;53.33;28.23;;;;;;;1.92;79.25;100858.31;1606480;88;25819;-75
2022/03/04 00:57:38;;;;;;;57.80;29.63;;;;;;;1.90;79.26;100856.28;1609127;87;26573;-75
2022/03/04 01:00:07;;;;;;;64.40;30.57;;;;;;;1.92;79.29;100853.03;1600904;88;25831;-73
2022/03/04 01:02:34;;;;;;;54.33;29.87;;;;;;;1.92;79.40;100860.95;1605463;88;25982;-73
2022/03/04 01:05:00;;;;;;;56.37;31.07;;;;;;;1.91;79.48;100856.62;1605283;88;27530;-75
2022/03/04 01:07:26;;;;;;;57.88;28.42;;;;;;;1.91;79.56;100860.58;1608356;88;26494;-76
2022/03/04 01:09:54;;;;;;;54.63;28.90;;;;;;;1.92;79.56;100861.42;1601619;88;25849;-74
2022/03/04 01:12:20;;;;;;;53.00;27.55;;;;;;;1.94;79.65;100864.78;1611563;87;25870;-74
2022/03/04 01:14:47;;;;;;;54.08;29.87;;;;;;;1.92;79.79;100863.59;1602203;88;25888;-75
2022/03/04 01:17:13;;;;;;;51.75;27.52;;;;;;;1.92;79.71;100864.91;1609236;88;27464;-75
2022/03/04 01:19:39;;;;;;;55.88;30.12;;;;;;;1.95;79.79;100868.61;1605512;88;25878;-76
2022/03/04 01:22:06;;;;;;;48.52;27.27;;;;;;;1.95;79.84;100864.64;1581796;89;25918;-75
2022/03/04 01:24:32;;;;;;;58.33;31.25;;;;;;;1.97;79.91;100864.52;1614390;87;26537;-77
2022/03/04 01:26:58;;;;;;;60.75;30.05;;;;;;;1.99;79.98;100863.94;1603484;88;25978;-75
2022/03/04 01:29:24;;;;;;;53.95;28.12;;;;;;;2.00;80.06;100866.44;1597424;88;27480;-75
2022/03/04 01:31:50;;;;;;;53.65;28.47;;;;;;;2.01;80.10;100865.45;1611919;88;25831;-75
2022/03/04 01:34:17;;;;;;;54.77;27.82;;;;;;;2.03;80.10;100858.75;1610726;87;25864;-74
2022/03/04 01:36:43;;;;;;;57.58;28.87;;;;;;;2.03;80.15;100861.39;1609060;87;25897;-75
2022/03/04 01:39:09;;;;;;;46.18;27.30;;;;;;;2.04;80.13;100867.02;1609482;88;26594;-74
2022/03/04 01:41:35;;;;;;;61.30;29.70;;;;;;;1.99;80.17;100862.61;1609799;88;27480;-73
2022/03/04 01:44:01;;;;;;;54.42;26.40;;;;;;;1.97;80.21;100863.19;1606251;88;25790;-73
2022/03/04 01:46:30;;;;;;;49.55;26.23;;;;;;;1.95;80.46;100861.16;1609181;88;25867;-75
2022/03/04 01:48:58;;;;;;;53.55;27.62;;;;;;;1.89;80.39;100859.88;1609190;88;45616;-74
2022/03/04 01:51:24;;;;;;;55.58;27.52;;;;;;;1.84;80.59;100855.43;1606499;88;25963;-75
2022/03/04 01:53:50;;;;;;;56.90;27.90;;;;;;;1.84;80.76;100858.58;1607970;88;27532;-74
2022/03/04 01:56:17;;;;;;;56.50;29.02;;;;;;;1.81;80.82;100856.17;1610724;88;26003;-77
2022/03/04 01:58:43;;;;;;;49.55;25.75;;;;;;;1.79;80.96;100854.14;1607532;88;25962;-74
2022/03/04 02:01:10;;;;;;;49.73;27.00;;;;;;;1.75;81.16;100846.96;1608978;88;25809;-75
2022/03/04 02:03:37;;;;;;;45.23;26.17;;;;;;;1.71;81.34;100848.65;1609154;88;25835;-75
2022/03/04 02:06:03;;;;;;;48.35;23.65;;;;;;;1.67;81.52;100853.83;1611047;87;27487;-76
2022/03/04 02:08:29;;;;;;;47.88;25.15;;;;;;;1.65;81.74;100848.64;1610312;88;26039;-76
2022/03/04 02:10:56;;;;;;;49.60;24.77;;;;;;;1.65;81.92;100848.64;1609894;88;25890;-74
2022/03/04 02:13:22;;;;;;;50.17;25.55;;;;;;;1.64;81.94;100846.98;1608440;88;25807;-76
2022/03/04 02:15:48;;;;;;;47.13;24.75;;;;;;;1.61;82.06;100845.05;1605570;88;25923;-75
2022/03/04 02:18:18;;;;;;;48.00;24.65;;;;;;;1.60;82.24;100847.35;1609143;88;27475;-75
2022/03/04 02:20:50;;;;;;;39.23;21.40;;;;;;;1.56;82.48;100842.81;1609541;88;25813;-73
2022/03/04 02:23:18;;;;;;;45.08;22.35;;;;;;;1.53;82.80;100854.92;1607704;87;25776;-75
2022/03/04 02:25:50;;;;;;;50.98;25.35;;;;;;;1.51;82.87;100848.93;1608273;88;25877;-74
2022/03/04 02:28:20;;;;;;;45.50;22.80;;;;;;;1.51;82.92;100855.05;1603199;88;26497;-76
2022/03/04 02:30:46;;;;;;;50.08;25.92;;;;;;;1.52;83.09;100852.75;1603550;87;27472;-76
2022/03/04 02:33:12;;;;;;;52.35;25.57;;;;;;;1.53;83.12;100859.73;1606787;87;25847;-75
2022/03/04 02:35:41;;;;;;;44.95;23.80;;;;;;;1.57;83.23;100858.99;1597108;88;25933;-75
2022/03/04 02:38:07;;;;;;;46.10;24.67;;;;;;;1.58;83.22;100861.16;1602112;88;25873;-76
2022/03/04 02:40:34;;;;;;;51.37;25.68;;;;;;;1.59;83.20;100862.34;1608557;88;25958;-75
2022/03/04 02:43:01;;;;;;;46.23;23.95;;;;;;;1.64;83.31;100861.98;1608708;88;27454;-76
2022/03/04 02:45:27;;;;;;;46.77;23.15;;;;;;;1.67;83.33;100858.60;1606421;87;25821;-77
2022/03/04 02:47:53;;;;;;;43.23;21.90;;;;;;;1.67;83.30;100858.60;1608401;88;25861;-75
2022/03/04 02:50:20;;;;;;;44.98;22.77;;;;;;;1.68;83.31;100864.25;1594755;88;25980;-75
2022/03/04 02:52:46;;;;;;;40.20;21.25;;;;;;;1.68;83.38;100858.13;1605590;88;26118;-75
2022/03/04 02:55:12;;;;;;;41.13;22.95;;;;;;;1.66;83.51;100858.73;1611875;88;28314;-75
2022/03/04 02:57:43;;;;;;;43.23;21.48;;;;;;;1.65;83.80;100864.99;1608166;87;26521;-75
2022/03/04 03:00:11;;;;;;;40.60;21.95;;;;;;;1.61;83.84;100868.34;1606911;88;26026;-74
2022/03/04 03:02:39;;;;;;;35.75;21.52;;;;;;;1.60;84.04;100866.68;1609068;88;25934;-76
2022/03/04 03:05:05;;;;;;;40.15;22.40;;;;;;;1.60;84.28;100865.36;1588019;88;25876;-75
2022/03/04 03:07:32;;;;;;;41.63;21.85;;;;;;;1.59;84.22;100870.27;1617263;88;27483;-75
2022/03/04 03:09:58;;;;;;;35.60;20.55;;;;;;;1.63;84.39;100868.20;1608796;88;25907;-75
2022/03/04 03:12:25;;;;;;;36.38;19.75;;;;;;;1.66;84.38;100867.97;1610614;88;27118;-76
2022/03/04 03:14:51;;;;;;;42.05;21.65;;;;;;;1.69;84.38;100872.52;1607642;88;26584;-74
2022/03/04 03:17:18;;;;;;;35.85;20.02;;;;;;;1.68;84.50;100870.85;1611463;87;25869;-75
2022/03/04 03:19:44;;;;;;;37.48;18.87;;;;;;;1.66;84.58;100874.10;1606121;88;27528;-75
2022/03/04 03:22:10;;;;;;;39.20;20.70;;;;;;;1.63;84.71;100869.05;1609407;88;26553;-74
2022/03/04 03:24:37;;;;;;;40.67;20.77;;;;;;;1.65;84.77;100874.23;1605696;88;25855;-74
2022/03/04 03:27:03;;;;;;;31.97;16.82;;;;;;;1.65;84.85;100865.80;1604585;88;25830;-75
2022/03/04 03:29:30;;;;;;;33.80;19.85;;;;;;;1.67;85.06;100874.95;1606222;88;25970;-74
2022/03/04 03:31:56;;;;;;;31.68;17.60;;;;;;;1.67;85.04;100878.91;1607074;87;27476;-75
2022/03/04 03:34:22;;;;;;;32.25;18.62;;;;;;;1.68;85.18;100867.37;1609901;87;26559;-73
2022/03/04 03:36:48;;;;;;;30.88;17.40;;;;;;;1.68;85.24;100880.09;1609782;87;25836;-73
2022/03/04 03:39:16;;;;;;;34.95;17.40;;;;;;;1.70;85.25;100879.48;1614209;88;25857;-75
2022/03/04 03:41:42;;;;;;;36.28;17.67;;;;;;;1.72;85.36;100884.16;1610020;87;26258;-73
2022/03/04 03:44:08;;;;;;;30.00;16.77;;;;;;;1.72;85.51;100880.67;1604273;88;27456;-75
2022/03/04 03:46:34;;;;;;;33.15;17.67;;;;;;;1.73;85.57;100883.69;1608618;88;25932;-73
2022/03/04 03:49:00;;;;;;;35.05;17.95;;;;;;;1.75;85.57;100876.01;1609463;88;25724;-76
2022/03/04 03:51:27;;;;;;;33.05;17.80;;;;;;;1.77;85.62;100878.52;1611083;88;26641;-74
2022/03/04 03:53:53;;;;;;;37.30;18.75;;;;;;;1.79;85.70;100878.75;1608658;88;25982;-73
2022/03/04 03:56:19;;;;;;;31.00;17.23;;;;;;;1.80;85.63;100875.13;1613077;88;28090;-75
2022/03/04 03:58:45;;;;;;;34.25;17.70;;;;;;;1.84;85.68;100883.16;1600278;88;25775;-74
2022/03/04 04:01:12;;;;;;;30.30;16.97;;;;;;;1.86;85.68;100877.27;1610039;88;25846;-76
2022/03/04 04:03:38;;;;;;;30.50;17.10;;;;;;;1.88;85.71;100877.17;1614295;87;26011;-76
2022/03/04 04:06:04;;;;;;;28.75;16.17;;;;;;;1.90;85.74;100880.05;1610379;88;26020;-73
2022/03/04 04:08:31;;;;;;;28.83;15.72;;;;;;;1.93;85.75;100881.58;1605901;87;27553;-76
2022/03/04 04:10:59;;;;;;;31.15;16.85;;;;;;;1.92;85.68;100882.08;1607641;88;25807;-74
2022/03/04 04:13:25;;;;;;;32.73;17.00;;;;;;;1.93;85.66;100883.75;1608372;88;25794;-75
2022/03/04 04:15:51;;;;;;;30.10;16.87;;;;;;;1.95;85.73;100887.58;1612878;87;25929;-75
2022/03/04 04:18:17;;;;;;;31.27;15.53;;;;;;;1.94;85.72;100886.77;1609475;88;25894;-75
2022/03/04 04:20:44;;;;;;;26.37;14.70;;;;;;;1.94;85.89;100889.88;1607337;87;28235;-75
2022/03/04 04:23:10;;;;;;;32.70;15.63;;;;;;;1.91;85.80;100886.99;1614155;87;26060;-76
2022/03/04 04:25:36;;;;;;;28.70;16.70;;;;;;;1.90;86.06;100896.38;1611239;88;25826;-75
2022/03/04 04:28:03;;;;;;;29.07;15.83;;;;;;;1.89;86.12;100890.72;1604393;87;25974;-75
2022/03/04 04:30:30;;;;;;;27.35;15.15;;;;;;;1.83;86.56;100899.98;1610664;88;25762;-74
2022/03/04 04:32:56;;;;;;;23.55;14.05;;;;;;;1.82;86.43;100896.98;1605017;87;27510;-73
2022/03/04 04:35:23;;;;;;;30.43;14.13;;;;;;;1.83;86.53;100893.39;1612783;88;25676;-75
2022/03/04 04:37:50;;;;;;;27.00;14.25;;;;;;;1.85;86.59;100898.06;1603945;88;25898;-74
2022/03/04 04:40:16;;;;;;;26.12;14.05;;;;;;;1.83;86.62;100893.39;1606736;88;26344;-75
2022/03/04 04:42:42;;;;;;;21.60;12.43;;;;;;;1.85;86.60;100897.22;1606910;88;25774;-74
2022/03/04 04:45:09;;;;;;;25.30;14.03;;;;;;;1.87;86.88;100902.73;1613479;87;27466;-75
2022/03/04 04:47:35;;;;;;;24.00;13.75;;;;;;;1.86;86.74;100897.59;1606483;88;25751;-75
2022/03/04 04:50:03;;;;;;;23.75;13.80;;;;;;;1.88;86.76;100897.80;1606568;88;25843;-74
2022/03/04 04:52:29;;;;;;;26.15;14.45;;;;;;;1.89;86.86;100899.97;1609383;88;26827;-73
2022/03/04 04:54:56;;;;;;;24.18;13.68;;;;;;;1.90;86.81;100902.50;1609400;88;25798;-76
2022/03/04 04:57:22;;;;;;;21.27;13.30;;;;;;;1.91;86.82;100900.20;1607633;87;28257;-75
2022/03/04 04:59:49;;;;;;;20.30;13.25;;;;;;;1.93;86.95;100902.23;1610868;87;25769;-75
2022/03/04 05:02:15;;;;;;;19.87;12.18;;;;;;;1.91;86.90;100910.77;1608369;88;25823;-76
2022/03/04 05:04:42;;;;;;;29.37;12.65;;;;;;;1.90;87.03;100917.03;1609927;88;26387;-74
2022/03/04 05:07:09;;;;;;;21.37;12.28;;;;;;;1.90;86.95;100914.39;1606824;88;25778;-73
2022/03/04 05:09:35;;;;;;;22.87;13.03;;;;;;;1.91;86.97;100912.09;1607798;88;27534;-73
2022/03/04 05:12:01;;;;;;;22.50;12.47;;;;;;;1.91;86.95;100912.56;1606556;88;25892;-74
2022/03/04 05:14:27;;;;;;;24.65;13.90;;;;;;;1.90;87.06;100909.11;1602908;88;25772;-76
2022/03/04 05:16:53;;;;;;;22.02;12.00;;;;;;;1.90;86.96;100915.71;1608327;87;25853;-75
2022/03/04 05:19:20;;;;;;;21.65;12.03;;;;;;;1.91;87.08;100920.48;1607446;87;25590;-74
2022/03/04 05:21:46;;;;;;;25.55;12.63;;;;;;;1.91;87.06;100916.05;1609829;88;28256;-76
2022/03/04 05:24:12;;;;;;;18.42;10.90;;;;;;;1.93;87.27;100918.56;1608762;88;26227;-77
2022/03/04 05:26:42;;;;;;;21.00;12.25;;;;;;;1.91;87.21;100918.69;1606763;87;25814;-78
2022/03/04 05:29:11;;;;;;;20.97;11.93;;;;;;;1.92;87.32;100919.54;1609419;87;26583;-77
2022/03/04 05:31:39;;;;;;;19.40;12.73;;;;;;;1.91;87.30;100924.45;1609324;88;25983;-76
2022/03/04 05:34:06;;;;;;;22.40;11.93;;;;;;;1.91;87.38;100921.34;1607364;87;28462;-76
2022/03/04 05:36:34;;;;;;;20.48;11.48;;;;;;;1.92;87.31;100924.82;1608847;87;25992;-76
2022/03/04 05:39:00;;;;;;;24.00;12.33;;;;;;;1.92;87.32;100931.42;1610135;88;25889;-77
2022/03/04 05:41:27;;;;;;;19.27;10.20;;;;;;;1.92;87.41;100936.23;1600801;88;25961;-76
2022/03/04 05:43:53;;;;;;;19.23;10.30;;;;;;;1.92;87.45;100936.23;1606138;88;25747;-76
2022/03/04 05:46:19;;;;;;;18.65;10.63;;;;;;;1.91;87.64;100934.55;1601755;88;27470;-77
2022/03/04 05:48:45;;;;;;;19.02;10.05;;;;;;;1.89;87.68;100941.75;1603399;88;25867;-78
2022/03/04 05:51:12;;;;;;;17.07;10.55;;;;;;;1.89;87.78;100948.36;1605522;87;26450;-76
2022/03/04 05:53:38;;;;;;;19.35;9.85;;;;;;;1.89;87.81;100941.75;1608801;88;26791;-78
2022/03/04 05:56:07;;;;;;;18.60;9.13;;;;;;;1.91;87.78;100945.58;1587266;89;26472;-78
2022/03/04 05:58:35;;;;;;;19.87;9.78;;;;;;;1.90;87.76;100945.23;1604620;88;28341;-77
2022/03/04 06:01:03;;;;;;;19.12;11.33;;;;;;;1.92;87.85;100944.16;1584484;89;25816;-78
2022/03/04 06:03:29;;;;;;;17.70;9.43;;;;;;;1.94;87.67;100950.16;1609961;87;26514;-78
2022/03/04 06:05:56;;;;;;;15.28;9.60;;;;;;;1.97;87.62;100949.05;1601943;88;25870;-77
2022/03/04 06:08:22;;;;;;;20.97;10.85;;;;;;;1.99;87.72;100952.44;1601715;87;26489;-76
2022/03/04 06:10:48;;;;;;;19.62;11.40;;;;;;;1.98;87.55;100955.55;1601773;88;26931;-78
2022/03/04 06:13:14;;;;;;;14.95;10.05;;;;;;;2.00;87.65;100964.66;1594082;87;25792;-79
2022/03/04 06:15:41;;;;;;;21.55;8.88;;;;;;;2.01;87.81;100966.36;1604358;87;25832;-76
2022/03/04 06:18:07;;;;;;;17.25;9.30;;;;;;;2.02;87.80;100964.05;1601331;88;25830;-77
2022/03/04 06:20:34;;;;;;;14.58;8.45;;;;;;;2.01;87.73;100972.45;1603203;88;26561;-80
2022/03/04 06:23:00;;;;;;;15.45;9.10;;;;;;;2.01;87.71;100973.78;1597445;88;27466;-79
2022/03/04 06:25:27;;;;;;;14.78;8.63;;;;;;;2.03;87.67;100975.81;1602539;88;26664;-78
2022/03/04 06:28:00;;;;;;;15.85;8.25;;;;;;;2.04;87.95;100977.98;1600538;88;25631;-78
2022/03/04 06:30:31;;;;;;;16.75;8.40;;;;;;;2.05;87.90;100983.64;1603092;87;25846;-78
2022/03/04 06:35:44;;;;;;;12.33;7.58;;;;;;;2.08;87.89;100989.50;1592605;88;27492;-77
2022/03/04 06:38:12;;;;;;;15.05;8.08;;;;;;;2.04;87.70;100988.08;1598811;88;25778;-78
2022/03/04 06:40:39;;;;;;;11.40;7.83;;;;;;;2.01;87.72;100998.88;1605484;87;25845;-78
2022/03/04 06:43:07;;;;;;;12.15;7.83;;;;;;;1.99;87.84;100997.34;1588168;89;25811;-76
2022/03/04 06:45:34;;;;;;;12.68;7.00;;;;;;;1.93;87.95;101005.73;1598895;88;25933;-76
2022/03/04 06:48:00;;;;;;;14.90;7.35;;;;;;;1.85;88.04;101011.63;1604220;88;27476;-78
2022/03/04 06:50:27;;;;;;;13.58;6.70;;;;;;;1.78;88.10;101012.22;1607172;87;25928;-78
2022/03/04 06:52:54;;;;;;;10.25;6.50;;;;;;;1.72;88.26;101014.88;1591416;88;26003;-78
2022/03/04 06:55:20;;;;;;;9.98;6.40;;;;;;;1.67;88.63;101014.39;1596775;88;26022;-78
2022/03/04 06:57:50;;;;;;;14.50;7.03;;;;;;;1.58;88.60;101011.98;1600007;88;25990;-76
2022/03/04 07:00:17;;;;;;;10.65;6.72;;;;;;;1.53;88.73;101014.63;1600788;88;27666;-78
2022/03/04 07:02:44;;;;;;;11.43;6.92;;;;;;;1.52;88.82;101014.26;1603632;87;25988;-77
2022/03/04 07:05:10;;;;;;;11.00;6.85;;;;;;;1.53;88.95;101013.31;1606590;87;25711;-77
2022/03/04 07:07:37;;;;;;;11.55;7.33;;;;;;;1.54;89.10;101007.91;1608876;87;25614;-78
2022/03/04 07:10:04;;;;;;;10.15;7.08;;;;;;;1.57;89.05;101016.07;1591634;89;25781;-78
2022/03/04 07:12:31;;;;;;;13.65;7.08;;;;;;;1.63;89.15;101014.74;1603743;88;27443;-79
2022/03/04 07:14:57;;;;;;;16.90;7.87;;;;;;;1.68;89.12;101013.91;1610021;87;26401;-78
2022/03/04 07:17:23;;;;;;;8.93;6.87;;;;;;;1.74;89.12;101018.70;1589573;88;25827;-79
2022/03/04 07:19:50;;;;;;;10.45;7.40;;;;;;;1.79;89.12;101025.80;1603741;88;25948;-77
2022/03/04 07:22:16;;;;;;;12.05;7.85;;;;;;;1.83;89.11;101020.16;1589123;89;25836;-77
2022/03/04 07:24:42;;;;;;;13.00;9.08;;;;;;;1.87;88.99;101025.56;1604802;88;27544;-77
2022/03/04 07:27:10;;;;;;;10.35;6.87;;;;;;;1.93;89.12;101022.42;1604006;88;25724;-78
2022/03/04 07:29:36;;;;;;;12.63;7.12;;;;;;;1.94;88.89;101027.23;1608413;87;25819;-77
2022/03/04 07:32:04;;;;;;;15.40;8.33;;;;;;;1.95;88.98;101028.43;1581424;89;25821;-78
2022/03/04 07:34:30;;;;;;;13.08;7.55;;;;;;;1.97;89.00;101030.94;1609314;88;25852;-78
2022/03/04 07:36:56;;;;;;;12.50;7.33;;;;;;;2.01;89.06;101032.41;1564920;89;29210;-78
2022/03/04 07:39:22;;;;;;;11.25;7.10;;;;;;;2.05;89.06;101032.52;1605028;88;26498;-78
2022/03/04 07:41:48;;;;;;;9.38;7.03;;;;;;;2.07;89.06;101035.41;1604095;88;25806;-79
2022/03/04 07:44:15;;;;;;;13.95;7.50;;;;;;;2.11;89.06;101038.62;1611104;88;25884;-79
2022/03/04 07:46:41;;;;;;;10.85;6.58;;;;;;;2.09;88.98;101038.77;1606008;87;25821;-77
2022/03/04 07:49:08;;;;;;;14.20;7.80;;;;;;;2.13;89.27;101040.19;1588821;89;27430;-78
2022/03/04 07:51:34;;;;;;;12.68;7.80;;;;;;;2.13;89.24;101041.52;1604949;88;26263;-78
2022/03/04 07:54:01;;;;;;;15.78;8.15;;;;;;;2.11;89.27;101043.44;1606165;88;25778;-77
2022/03/04 07:56:27;;;;;;;13.38;7.87;;;;;;;2.17;89.48;101040.78;1603775;88;25835;-77
2022/03/04 07:58:53;;;;;;;13.10;7.80;;;;;;;2.22;89.62;101043.91;1588473;88;25897;-78
2022/03/04 08:01:20;;;;;;;14.07;7.05;;;;;;;2.26;89.88;101050.15;1601304;88;27503;-78
2022/03/04 08:03:46;;;;;;;10.82;7.87;;;;;;;2.27;90.03;101045.20;1604016;88;25837;-79
2022/03/04 08:06:13;;;;;;;13.68;8.08;;;;;;;2.26;90.13;101046.66;1612950;88;25970;-77
2022/03/04 08:08:40;;;;;;;13.48;8.33;;;;;;;2.30;90.41;101043.65;1591885;89;25754;-79
2022/03/04 08:11:07;;;;;;;11.28;8.05;;;;;;;2.33;90.52;101039.92;1608185;88;26610;-77
2022/03/04 08:13:34;;;;;;;11.18;7.58;;;;;;;2.36;90.56;101044.95;1587757;89;26970;-78
2022/03/04 08:16:01;;;;;;;13.75;7.60;;;;;;;2.41;90.71;101041.46;1583435;88;25914;-77
2022/03/04 08:18:29;;;;;;;15.13;7.55;;;;;;;2.46;90.82;101050.34;1587474;88;25951;-77
2022/03/04 08:20:55;;;;;;;12.68;7.70;;;;;;;2.47;90.81;101045.41;1605787;88;26606;-79
2022/03/04 08:23:21;;;;;;;14.07;8.35;;;;;;;2.46;90.74;101045.88;1588721;88;25846;-77
2022/03/04 08:25:49;;;;;;;13.83;8.00;;;;;;;2.47;90.75;101046.72;1607289;87;28217;-79
2022/03/04 08:28:16;;;;;;;14.45;8.05;;;;;;;2.45;90.84;101043.36;1608260;88;25751;-79
2022/03/04 08:30:42;;;;;;;12.23;8.20;;;;;;;2.48;90.82;101053.20;1581552;89;26104;-77
2022/03/04 08:33:08;;;;;;;12.45;7.67;;;;;;;2.50;90.96;101049.98;1602067;88;25849;-78
2022/03/04 08:35:36;;;;;;;10.72;6.80;;;;;;;2.52;91.09;101052.02;1606370;87;25815;-78
2022/03/04 08:38:02;;;;;;;14.53;7.92;;;;;;;2.53;90.88;101055.48;1591791;89;27521;-76
2022/03/04 08:40:29;;;;;;;12.65;7.85;;;;;;;2.54;91.15;101059.34;1602327;88;25980;-79
2022/03/04 08:42:56;;;;;;;13.25;8.00;;;;;;;2.56;90.83;101064.49;1601577;88;25409;-78
2022/03/04 08:45:23;;;;;;;11.88;7.40;;;;;;;2.58;91.01;101063.41;1605040;87;26173;-77
2022/03/04 08:47:49;;;;;;;15.38;8.08;;;;;;;2.62;91.11;101070.13;1576564;90;26012;-78
2022/03/04 08:50:18;;;;;;;12.78;7.75;;;;;;;2.67;91.31;101073.73;1587806;88;27515;-78
2022/03/04 08:52:44;;;;;;;11.85;7.00;;;;;;;2.66;91.07;101072.03;1613301;88;25952;-78
2022/03/04 08:55:16;;;;;;;22.52;9.93;;;;;;;2.63;90.83;101078.41;1580436;88;25804;-76
2022/03/04 08:57:45;;;;;;;14.18;8.23;;;;;;;2.61;90.91;101080.84;1609707;87;26582;-78
2022/03/04 09:00:16;;;;;;;12.60;8.25;;;;;;;2.61;90.74;101078.20;1581137;89;25921;-78
2022/03/04 09:02:43;;;;;;;14.98;7.67;;;;;;;2.68;91.09;101082.00;1601396;88;27457;-77
2022/03/04 09:05:09;;;;;;;14.30;8.00;;;;;;;2.72;91.22;101081.63;1605799;88;25387;-78
2022/03/04 09:07:35;;;;;;;10.85;7.47;;;;;;;2.75;91.16;101080.55;1599840;88;25411;-77
2022/03/04 09:10:05;;;;;;;17.15;8.20;;;;;;;2.77;91.08;101084.75;1603374;88;26679;-79
2022/03/04 09:12:31;;;;;;;15.40;7.60;;;;;;;2.79;91.08;101093.88;1599379;88;25883;-78
2022/03/04 09:14:57;;;;;;;12.95;8.23;;;;;;;2.78;90.95;101089.06;1603794;88;27470;-78
2022/03/04 09:17:24;;;;;;;14.03;8.18;;;;;;;2.81;91.02;101098.55;1607288;87;25824;-78
2022/03/04 09:19:50;;;;;;;14.00;8.68;;;;;;;2.81;90.78;101098.55;1583436;89;25392;-78
2022/03/04 09:22:17;;;;;;;14.00;8.48;;;;;;;2.79;90.83;101100.02;1605783;88;25766;-79
2022/03/04 09:24:43;;;;;;;13.40;8.18;;;;;;;2.79;91.00;101102.66;1607512;87;25795;-77
2022/03/04 09:27:10;;;;;;;12.98;8.98;;;;;;;2.80;91.03;101101.67;1587361;89;27470;-78
2022/03/04 09:29:36;;;;;;;13.50;8.95;;;;;;;2.80;90.82;101103.51;1602354;88;25919;-77
2022/03/04 09:32:03;;;;;;;15.13;8.68;;;;;;;2.80;90.81;101104.32;1585044;89;25929;-79
2022/03/04 09:34:29;;;;;;;11.45;8.03;;;;;;;2.80;90.75;101104.83;1606256;87;25976;-78
2022/03/04 09:36:56;;;;;;;13.58;8.50;;;;;;;2.80;90.86;101110.94;1575278;89;25792;-77
2022/03/04 09:39:22;;;;;;;14.93;9.30;;;;;;;2.82;90.86;101106.36;1604124;88;28255;-78
2022/03/04 09:41:48;;;;;;;16.07;8.90;;;;;;;2.84;90.83;101108.43;1607109;87;25337;-78
2022/03/04 09:44:16;;;;;;;14.55;8.23;;;;;;;2.87;90.66;101108.16;1611101;88;25877;-77
2022/03/04 09:46:44;;;;;;;19.02;8.98;;;;;;;2.88;90.57;101113.83;1607014;88;25850;-78
2022/03/04 09:49:17;;;;;;;15.75;10.40;;;;;;;2.86;90.60;101114.44;1599249;88;25949;-76
2022/03/04 09:51:45;;;;;;;17.40;9.10;;;;;;;2.84;90.56;101109.75;1612026;87;27454;-74
2022/03/04 09:54:11;;;;;;;15.58;9.10;;;;;;;2.84;90.48;101107.11;1581420;89;26487;-76
2022/03/04 09:56:38;;;;;;;15.32;9.28;;;;;;;2.89;90.75;101111.52;1596856;88;25802;-73
2022/03/04 09:59:06;;;;;;;18.40;10.48;;;;;;;2.90;90.69;101107.92;1590532;89;26718;-75
2022/03/04 10:01:32;;;;;;;14.83;8.68;;;;;;;2.94;90.63;101111.99;1606630;88;25620;-76
2022/03/04 10:03:58;;;;;;;18.42;9.70;;;;;;;2.97;90.70;101113.05;1585473;88;28606;-76
2022/03/04 10:06:24;;;;;;;17.57;9.33;;;;;;;2.97;90.51;101105.11;1605825;87;26803;-74
2022/03/04 10:08:53;;;;;;;15.50;9.73;;;;;;;2.97;90.45;101112.23;1581029;89;25837;-76
2022/03/04 10:11:33;;;;;;;17.07;10.00;;;;;;;2.97;90.46;101116.20;1600428;88;26025;-76
2022/03/04 10:14:08;;;;;;;16.17;10.45;;;;;;;2.95;90.39;101116.81;1602221;88;25758;-76
2022/03/04 10:16:40;;;;;;;20.57;10.13;;;;;;;2.93;90.15;101115.59;1573625;90;27487;-75
2022/03/04 10:19:16;;;;;;;13.55;8.78;;;;;;;2.93;90.00;101115.59;1609804;88;25789;-74
2022/03/04 10:21:52;;;;;;;16.07;9.58;;;;;;;2.91;90.14;101115.35;1608999;88;25869;-75
2022/03/04 10:24:29;;;;;;;15.53;9.50;;;;;;;2.89;90.00;101111.52;1605999;88;25979;-74
2022/03/04 10:27:02;;;;;;;13.20;8.38;;;;;;;2.87;90.04;101109.95;1591841;89;25836;-75
2022/03/04 10:29:32;;;;;;;15.72;9.90;;;;;;;2.90;90.36;101121.63;1608603;88;28452;-76
2022/03/04 10:32:22;;;;;;;15.10;8.88;;;;;;;2.91;90.30;101114.03;1610527;87;25880;-75
2022/03/04 10:35:04;;;;;;;16.37;9.73;;;;;;;2.92;90.29;101120.54;1584352;89;25955;-77
2022/03/04 10:37:48;;;;;;;18.20;9.65;;;;;;;2.94;90.24;101111.99;1606231;88;25774;-76
2022/03/04 10:40:21;;;;;;;13.98;9.20;;;;;;;2.96;90.12;101111.86;1591964;89;25945;-75
2022/03/04 10:42:58;;;;;;;13.55;8.43;;;;;;;2.95;90.08;101105.72;1582472;89;28006;-75
2022/03/04 10:45:41;;;;;;;15.78;9.38;;;;;;;2.95;90.02;101105.72;1577531;89;26076;-75
2022/03/04 10:48:14;;;;;;;15.35;8.18;;;;;;;2.95;90.05;101103.07;1593940;88;25741;-74
2022/03/04 10:50:52;;;;;;;15.18;9.50;;;;;;;2.94;89.83;101100.56;1607435;88;26466;-76
2022/03/04 10:53:28;;;;;;;13.08;8.20;;;;;;;2.95;89.69;101104.91;1603042;87;26667;-76
2022/03/04 10:56:04;;;;;;;15.35;8.35;;;;;;;2.95;89.65;101105.72;1590867;89;27446;-76
2022/03/04 10:58:35;;;;;;;15.20;8.13;;;;;;;2.96;89.67;101111.86;1608396;88;25657;-75
2022/03/04 11:01:19;;;;;;;16.20;9.25;;;;;;;2.96;89.62;101110.06;1600258;88;25189;-77
2022/03/04 11:03:49;;;;;;;16.80;9.23;;;;;;;2.99;89.70;101112.95;1602401;88;25761;-75
2022/03/04 11:06:16;;;;;;;18.50;9.55;;;;;;;3.03;89.96;101115.22;1595017;89;25876;-75
2022/03/04 11:08:44;;;;;;;18.57;9.53;;;;;;;3.07;89.99;101116.64;1596577;87;28046;-74
2022/03/04 11:11:11;;;;;;;13.85;9.08;;;;;;;3.12;89.78;101116.27;1572663;89;25954;-75
2022/03/04 11:13:37;;;;;;;16.48;9.20;;;;;;;3.16;89.61;101122.98;1612249;87;25828;-76
2022/03/04 11:16:06;;;;;;;17.10;8.58;;;;;;;3.19;89.68;101124.55;1583303;89;25850;-75
2022/03/04 11:18:34;;;;;;;16.02;9.08;;;;;;;3.26;89.76;101121.72;1595755;88;26526;-74
2022/03/04 11:21:04;;;;;;;15.23;9.48;;;;;;;3.27;89.17;101125.59;1586846;89;27485;-79
2022/03/04 11:23:34;;;;;;;18.98;9.93;;;;;;;3.27;89.00;101132.20;1599441;88;26504;-76
2022/03/04 11:26:03;;;;;;;15.40;8.55;;;;;;;3.29;89.13;101120.16;1605055;88;25807;-76